Ocean City, MD

1:02 AM EDT on September 24, 2014 (GMT -0400)
Sussex County | Change Station
CLOSE
Current Station
Airport
Location: Georgetown,
Elevation: 52 ft
Nearby Weather Stations

Elev 52 ft 38.69 °N, 75.36 °W | Updated 8 minutes ago

Partly Cloudy
Partly Cloudy
54 °F
Feels Like 54 °F
N
0
Wind Variable Wind from North

Today
High -- | Low -- °F
--% Chance of Precip.
Yesterday
High -- | Low -- °F
Precip. -- in
6:49 AM 6:54 PM
Waning Crescent, 0% visible
Pressure 30.39 in
Visibility 10.0 miles
Clouds Clear
Dew Point 49 °F
Humidity 83%
Rainfall 0.00 in
Snow Depth Not available.
UV 0 out of 12
Pollen 3.90 out of 12
Air Quality Not available.
Flu Activity Not available.
METAR KGED 240454Z AUTO 00000KT 10SM CLR 12/09 A3039 RMK AO2 SLP289 T01220094 401890094 $

More Conditions Fewer Conditions

Pressure 30.39 in
Visibility 10.0 miles
Clouds Clear
Dew Point 49 °F
Humidity 83%
Rainfall 0.00 in
Snow Depth Not available.
UV 0 out of 12
Pollen 3.90 out of 12
Air Quality Not available.
Flu Activity Not available.
METAR KGED 240454Z AUTO 00000KT 10SM CLR 12/09 A3039 RMK AO2 SLP289 T01220094 401890094 $

More Conditions Fewer Conditions

10-Day Weather Forecast

Almanac

Astronomy

Sep. 24, 2014 Rise Set
Actual Time 6:49 AM EDT 6:54 PM EDT
Civil Twilight 6:23 AM EDT 7:20 PM EDT
Nautical Twilight 5:52 AM EDT 7:51 PM EDT
Astronomical Twilight 5:21 AM EDT 8:22 PM EDT
Moon 7:07 AM EDT 7:04 PM EDT
Length of Visible Light 12h 57m
Length of Day
12h 04m
Tomorrow will be 2m 28s shorter.
Waning Crescent, 0% of the Moon is Illuminated
Today
Waning Crescent
Sep 24
New
Oct 1
First Quarter
Oct 8
Full
Oct 15
Last Quarter

Today's Extremes

State Highs State Lows

Community

WunderPhotos

Upload Photos

1,755,891 photos uploaded!

WunderBlogs® & News

Nearby

Snow Depth

Station Depth Elevation
No new snow has been reported.

Earthquake Activity

City Distance Mag. Time & Date
No recent earthquake activity has been reported nearby.
Minimum magnitude displayed is 2.5.

Coastal Water Temperatures

Place Temperature
Ocean City Inlet, MD 70.0 °F
Wachapreague, VA 68.0 °F
Lewes, DE 69.1 °F
Cape May, NJ 73.0 °F
Bishops Head, MD 64.9 °F

Nearby Weather Stations